Time;durP1;ratioP1;P1;durP2;ratioP2;P2;SDS_P1;SDS_P2;PMS_P1;PMS_P2;Temp;Humidity;BMP_temperature;BMP_pressure;BME280_temperature;BME280_humidity;BME280_pressure;Samples;Min_cycle;Max_cycle;Signal;HPM_P1;HPM_P2
2022/03/26 00:00:35;;;;;;;33.20;16.40;;;;;;;-1.82;74.59;102087.59;107882;1245;61379;-67
2022/03/26 00:03:15;;;;;;;24.80;15.00;;;;;;;-1.85;74.31;102081.45;107759;1244;74575;-66
2022/03/26 00:05:44;;;;;;;27.20;16.40;;;;;;;-1.91;74.42;102081.45;107628;1244;71005;-65
2022/03/26 00:08:13;;;;;;;25.10;15.20;;;;;;;-1.94;74.44;102077.01;107632;1244;68739;-67
2022/03/26 00:10:42;;;;;;;26.90;15.40;;;;;;;-1.95;74.22;102080.92;107609;1244;72715;-66
2022/03/26 00:13:11;;;;;;;31.30;15.20;;;;;;;-1.99;74.54;102076.98;107662;1245;61268;-65
2022/03/26 00:15:41;;;;;;;28.00;15.80;;;;;;;-2.00;74.66;102077.84;107641;1245;61036;-65
2022/03/26 00:18:17;;;;;;;29.80;15.60;;;;;;;-2.02;74.66;102074.44;107637;1243;74509;-65
2022/03/26 00:20:46;;;;;;;30.80;15.50;;;;;;;-2.03;74.77;102078.70;107618;1244;71971;-65
2022/03/26 00:23:15;;;;;;;28.30;15.40;;;;;;;-2.06;74.86;102077.33;107636;1243;67938;-64
2022/03/26 00:25:44;;;;;;;28.00;15.10;;;;;;;-2.12;74.03;102072.88;107632;1244;70992;-64
2022/03/26 00:28:14;;;;;;;30.10;15.70;;;;;;;-2.19;74.26;102069.11;107634;1245;62313;-65
2022/03/26 00:30:43;;;;;;;26.10;15.60;;;;;;;-2.23;75.23;102068.76;107595;1244;62246;-66
2022/03/26 00:33:12;;;;;;;29.80;16.20;;;;;;;-2.27;75.04;102066.19;107606;1244;73558;-66
2022/03/26 00:35:44;;;;;;;26.80;15.00;;;;;;;-2.31;75.15;102065.17;107726;1243;72332;-67
2022/03/26 00:38:13;;;;;;;30.70;15.20;;;;;;;-2.30;75.76;102066.70;107647;1245;68390;-68
2022/03/26 00:40:43;;;;;;;27.60;14.40;;;;;;;-2.27;75.64;102063.80;107738;1244;71974;-66
2022/03/26 00:43:11;;;;;;;26.10;14.80;;;;;;;-2.28;75.76;102064.99;107783;1244;62115;-65
2022/03/26 00:45:43;;;;;;;24.90;14.20;;;;;;;-2.27;75.21;102065.34;107902;1245;60660;-65
2022/03/26 00:48:12;;;;;;;25.00;14.70;;;;;;;-2.29;75.56;102064.14;107906;1245;73217;-66
2022/03/26 00:50:41;;;;;;;29.60;15.10;;;;;;;-2.29;75.46;102066.70;107676;1244;71066;-65
2022/03/26 00:53:10;;;;;;;25.10;14.00;;;;;;;-2.32;75.18;102067.56;107657;1243;68718;-66
2022/03/26 00:55:39;;;;;;;29.10;15.30;;;;;;;-2.33;75.43;102068.56;107680;1244;72348;-65
2022/03/26 00:58:09;;;;;;;31.10;15.90;;;;;;;-2.32;75.66;102068.23;107808;1244;61607;-65
2022/03/26 01:00:38;;;;;;;29.10;15.30;;;;;;;-2.30;75.72;102063.11;107856;1243;61858;-65
2022/03/26 01:03:09;;;;;;;30.20;15.90;;;;;;;-2.25;75.55;102061.24;107816;1245;72808;-64
2022/03/26 01:05:38;;;;;;;29.40;15.30;;;;;;;-2.21;75.26;102058.70;107772;1245;69569;-65
2022/03/26 01:08:07;;;;;;;31.80;16.10;;;;;;;-2.20;75.18;102060.92;107855;1244;70953;-65
2022/03/26 01:10:37;;;;;;;25.70;15.50;;;;;;;-2.21;75.00;102060.41;107861;1244;72821;-65
2022/03/26 01:13:06;;;;;;;25.30;15.30;;;;;;;-2.22;74.96;102056.99;108031;1243;61662;-67
2022/03/26 01:15:35;;;;;;;31.20;15.40;;;;;;;-2.24;74.71;102059.89;108063;1243;60541;-66
2022/03/26 01:18:04;;;;;;;31.40;16.50;;;;;;;-2.25;74.86;102063.30;107780;1245;72293;-67
2022/03/26 01:20:33;;;;;;;31.20;15.30;;;;;;;-2.26;75.46;102058.52;107814;1244;71526;-66
2022/03/26 01:23:04;;;;;;;31.50;15.50;;;;;;;-2.26;75.64;102056.31;107909;1244;69570;-65
2022/03/26 01:25:33;;;;;;;25.30;15.00;;;;;;;-2.27;75.35;102055.27;107865;1244;71206;-65
2022/03/26 01:28:02;;;;;;;27.20;14.80;;;;;;;-2.30;75.19;102054.75;107758;1243;62154;-63
2022/03/26 01:30:31;;;;;;;27.40;16.10;;;;;;;-2.29;75.04;102053.55;107703;1244;60514;-66
2022/03/26 01:33:01;;;;;;;31.40;15.80;;;;;;;-2.24;75.02;102052.04;107774;1244;75381;-67
2022/03/26 01:35:29;;;;;;;28.80;15.40;;;;;;;-2.25;74.85;102054.09;107831;1244;71767;-65
2022/03/26 01:38:04;;;;;;;28.50;16.60;;;;;;;-2.29;74.73;102050.66;107693;1245;67927;-65
2022/03/26 01:40:36;;;;;;;30.70;16.20;;;;;;;-2.31;74.98;102048.61;107739;1244;73994;-65
2022/03/26 01:43:06;;;;;;;33.70;17.50;;;;;;;-2.36;74.90;102048.08;107769;1244;60089;-68
2022/03/26 01:45:35;;;;;;;32.50;17.10;;;;;;;-2.40;75.27;102048.07;107689;1244;62370;-68
2022/03/26 01:48:04;;;;;;;30.10;17.00;;;;;;;-2.46;73.89;102046.52;107820;1244;74008;-68
2022/03/26 01:50:33;;;;;;;28.60;16.20;;;;;;;-2.50;74.81;102045.30;107759;1246;70798;-65
2022/03/26 01:53:03;;;;;;;33.40;16.40;;;;;;;-2.57;73.87;102046.83;107817;1244;68199;-64
2022/03/26 01:55:32;;;;;;;32.30;16.80;;;;;;;-2.66;74.31;102046.46;107650;1244;74319;-65
2022/03/26 01:58:02;;;;;;;29.50;16.00;;;;;;;-2.75;73.50;102049.34;107555;1247;59749;-65
2022/03/26 02:00:31;;;;;;;29.10;15.70;;;;;;;-2.82;74.13;102048.44;107715;1244;61599;-65
2022/03/26 02:03:00;;;;;;;26.50;15.40;;;;;;;-2.85;76.18;102049.29;107649;1244;74140;-64
2022/03/26 02:05:29;;;;;;;30.50;15.10;;;;;;;-2.85;76.13;102045.02;107665;1244;71067;-65
2022/03/26 02:07:58;;;;;;;24.10;14.40;;;;;;;-2.82;76.57;102045.72;107887;1244;70552;-63
2022/03/26 02:10:27;;;;;;;29.80;15.90;;;;;;;-2.80;76.09;102044.70;107948;1244;74549;-65
2022/03/26 02:12:58;;;;;;;27.10;15.80;;;;;;;-2.82;76.00;102041.12;107680;1244;60845;-65
2022/03/26 02:15:27;;;;;;;27.90;15.70;;;;;;;-2.85;76.17;102037.35;107756;1244;59829;-66
2022/03/26 02:17:56;;;;;;;24.00;14.50;;;;;;;-2.89;75.88;102036.65;107898;1244;72902;-64
2022/03/26 02:20:26;;;;;;;27.00;15.10;;;;;;;-2.91;75.96;102035.45;107718;1243;70753;-64
2022/03/26 02:22:55;;;;;;;25.00;15.20;;;;;;;-2.93;76.15;102037.48;107737;1244;70624;-65
2022/03/26 02:25:24;;;;;;;26.70;14.80;;;;;;;-2.93;76.20;102033.73;107675;1244;74360;-65
2022/03/26 02:27:53;;;;;;;25.90;13.90;;;;;;;-2.90;76.51;102032.39;107838;1244;59580;-65
2022/03/26 02:30:22;;;;;;;23.30;14.20;;;;;;;-2.90;76.27;102028.30;107701;1244;59549;-65
2022/03/26 02:32:51;;;;;;;26.80;14.80;;;;;;;-2.90;76.84;102027.95;107714;1244;74208;-65
2022/03/26 02:35:20;;;;;;;26.80;14.70;;;;;;;-2.88;76.53;102025.91;107677;1244;71517;-67
2022/03/26 02:37:49;;;;;;;25.20;14.60;;;;;;;-2.89;75.83;102026.77;107716;1244;72119;-66
2022/03/26 02:40:20;;;;;;;26.20;14.90;;;;;;;-2.92;75.83;102020.61;107846;1245;74607;-67
2022/03/26 02:42:49;;;;;;;26.00;15.20;;;;;;;-2.98;75.64;102017.34;107818;1244;60987;-67
2022/03/26 02:45:18;;;;;;;29.50;15.40;;;;;;;-3.03;75.88;102017.67;107610;1246;59326;-68
2022/03/26 02:47:49;;;;;;;24.60;14.80;;;;;;;-3.08;74.89;102017.82;107816;1244;74805;-64
2022/03/26 02:50:18;;;;;;;28.50;15.10;;;;;;;-3.14;74.53;102015.39;107627;1244;74188;-66
2022/03/26 02:52:50;;;;;;;30.30;16.70;;;;;;;-3.21;74.68;102012.98;107781;1244;69737;-65
2022/03/26 02:55:19;;;;;;;31.40;18.30;;;;;;;-3.28;74.56;102008.52;107731;1244;72857;-64
2022/03/26 02:57:48;;;;;;;27.90;15.60;;;;;;;-3.33;74.59;102009.00;107785;1244;60338;-65
2022/03/26 03:00:17;;;;;;;28.30;16.90;;;;;;;-3.36;75.47;102002.33;107744;1244;59730;-65
2022/03/26 03:02:46;;;;;;;32.00;17.40;;;;;;;-3.33;77.35;102005.77;107620;1244;72165;-65
2022/03/26 03:05:15;;;;;;;33.60;17.40;;;;;;;-3.28;78.26;102009.54;107602;1244;70504;-66
2022/03/26 03:07:45;;;;;;;34.70;18.70;;;;;;;-3.25;78.13;102010.40;107615;1244;72307;-66
2022/03/26 03:10:18;;;;;;;30.40;17.30;;;;;;;-3.23;77.87;102011.44;107541;1244;73314;-66
2022/03/26 03:12:47;;;;;;;30.20;17.30;;;;;;;-3.21;78.01;102012.81;107627;1244;61321;-65
2022/03/26 03:15:19;;;;;;;31.40;16.60;;;;;;;-3.19;77.54;102011.28;107517;1244;60749;-65
2022/03/26 03:17:49;;;;;;;31.90;16.80;;;;;;;-3.15;77.16;102012.33;107636;1243;72986;-65
2022/03/26 03:20:19;;;;;;;27.70;16.10;;;;;;;-3.13;76.96;102006.88;107556;1245;70906;-66
2022/03/26 03:22:48;;;;;;;25.70;15.80;;;;;;;-3.12;76.62;102005.87;107672;1244;69838;-64
2022/03/26 03:25:18;;;;;;;26.80;16.00;;;;;;;-3.14;76.38;102005.52;107627;1244;72377;-65
2022/03/26 03:27:47;;;;;;;26.00;14.80;;;;;;;-3.17;76.51;102001.76;107580;1244;61443;-65
2022/03/26 03:30:16;;;;;;;30.00;16.20;;;;;;;-3.17;76.76;102005.66;107545;1244;59844;-63
2022/03/26 03:32:45;;;;;;;29.40;16.70;;;;;;;-3.21;75.85;102000.02;107566;1244;74527;-65
2022/03/26 03:35:14;;;;;;;35.20;17.50;;;;;;;-3.21;76.03;102001.39;107659;1244;71904;-64
2022/03/26 03:37:42;;;;;;;32.40;17.50;;;;;;;-3.27;76.22;101982.79;107636;1244;71857;-66
2022/03/26 03:40:13;;;;;;;33.10;18.30;;;;;;;-3.20;76.55;101995.42;107509;1244;74104;-67
2022/03/26 03:42:42;;;;;;;33.20;17.30;;;;;;;-3.23;77.10;101991.85;107625;1244;60081;-67
2022/03/26 03:45:12;;;;;;;29.00;17.10;;;;;;;-3.23;77.00;101993.56;107641;1244;61781;-67
2022/03/26 03:47:41;;;;;;;32.80;17.10;;;;;;;-3.23;77.13;101993.88;107632;1244;73796;-66
2022/03/26 03:50:10;;;;;;;37.50;18.40;;;;;;;-3.19;77.31;101991.35;107595;1244;69232;-64
2022/03/26 03:52:39;;;;;;;35.70;20.80;;;;;;;-3.17;77.29;101988.81;107541;1244;69260;-65
2022/03/26 03:55:08;;;;;;;36.70;18.60;;;;;;;-3.15;77.52;101988.98;107628;1244;72024;-67
2022/03/26 03:57:43;;;;;;;31.70;19.40;;;;;;;-3.15;77.04;101990.00;107617;1244;59558;-64
2022/03/26 04:00:15;;;;;;;35.70;18.60;;;;;;;-3.15;77.02;101991.02;107516;1243;61281;-67
2022/03/26 04:02:44;;;;;;;35.40;18.60;;;;;;;-3.17;76.90;101990.67;107612;1244;72981;-66
2022/03/26 04:05:17;;;;;;;38.20;20.40;;;;;;;-3.21;76.68;101990.83;107609;1244;71352;-67
2022/03/26 04:07:46;;;;;;;40.00;18.40;;;;;;;-3.20;76.78;101987.60;107693;1244;70736;-66
2022/03/26 04:10:15;;;;;;;32.70;18.50;;;;;;;-3.20;77.54;101990.66;107554;1244;74386;-66
2022/03/26 04:12:45;;;;;;;29.60;18.10;;;;;;;-3.24;77.14;101989.63;107698;1244;59635;-66
2022/03/26 04:15:14;;;;;;;27.20;16.70;;;;;;;-3.18;77.32;101988.63;107791;1244;61096;-67
2022/03/26 04:17:43;;;;;;;34.90;17.90;;;;;;;-3.14;76.99;101988.98;107911;1244;72599;-64
2022/03/26 04:20:12;;;;;;;34.90;17.20;;;;;;;-3.12;76.46;101984.23;107831;1244;70396;-64
2022/03/26 04:22:41;;;;;;;34.20;18.10;;;;;;;-3.10;76.52;101989.17;107749;1244;69049;-65
2022/03/26 04:25:10;;;;;;;29.40;17.00;;;;;;;-3.06;76.55;101984.27;107622;1244;72395;-65
2022/03/26 04:27:44;;;;;;;27.90;16.70;;;;;;;-3.04;76.51;101984.42;107700;1244;59610;-64
2022/03/26 04:30:14;;;;;;;26.90;14.90;;;;;;;-3.02;75.90;101988.02;107824;1244;59476;-67
2022/03/26 04:32:43;;;;;;;29.40;16.00;;;;;;;-3.01;75.93;101979.31;107722;1244;75470;-64
2022/03/26 04:35:13;;;;;;;27.80;15.30;;;;;;;-3.03;76.56;101978.63;107877;1244;70744;-67
2022/03/26 04:37:42;;;;;;;26.50;15.20;;;;;;;-2.99;75.91;101980.36;107907;1244;68069;-66
2022/03/26 04:40:13;;;;;;;27.90;16.20;;;;;;;-2.94;75.81;101980.73;107890;1244;72052;-69
2022/03/26 04:42:43;;;;;;;30.00;16.80;;;;;;;-2.89;75.72;101983.63;107943;1244;59689;-67
2022/03/26 04:45:12;;;;;;;32.60;16.80;;;;;;;-2.86;76.05;101981.42;107799;1244;59925;-68
2022/03/26 04:47:41;;;;;;;28.90;18.00;;;;;;;-2.82;76.05;101978.70;107700;1244;74777;-66
2022/03/26 04:50:11;;;;;;;34.60;17.60;;;;;;;-2.76;76.20;101981.12;107829;1244;70841;-67
2022/03/26 04:52:41;;;;;;;33.60;17.00;;;;;;;-2.72;75.71;101980.78;107710;1244;70840;-66
2022/03/26 04:55:11;;;;;;;31.20;17.70;;;;;;;-2.67;75.49;101979.08;107792;1244;73948;-71
2022/03/26 04:57:42;;;;;;;28.50;17.00;;;;;;;-2.62;75.56;101976.72;107921;1244;60254;-67
2022/03/26 05:00:14;;;;;;;30.00;16.90;;;;;;;-2.55;75.57;101975.20;107691;1243;59864;-67
2022/03/26 05:02:43;;;;;;;28.80;17.20;;;;;;;-2.45;75.39;101969.23;107831;1244;74896;-67
2022/03/26 05:05:14;;;;;;;33.70;17.20;;;;;;;-2.40;75.23;101960.21;107780;1244;71897;-69
2022/03/26 05:07:46;;;;;;;30.70;17.80;;;;;;;-2.28;75.33;101968.08;107820;1244;69173;-66
2022/03/26 05:10:27;;;;;;;30.60;17.10;;;;;;;-2.22;74.98;101968.08;107831;1244;74276;-69
2022/03/26 05:13:00;;;;;;;36.30;18.60;;;;;;;-2.10;74.54;101972.34;107784;1244;60563;-65
2022/03/26 05:15:30;;;;;;;36.70;18.70;;;;;;;-2.00;74.56;101970.30;107696;1244;59728;-66
2022/03/26 05:17:59;;;;;;;37.50;21.10;;;;;;;-1.94;74.31;101963.46;107550;1244;73548;-70
2022/03/26 05:20:28;;;;;;;41.50;21.20;;;;;;;-1.84;74.34;101967.38;107721;1244;72254;-66
2022/03/26 05:22:58;;;;;;;33.30;18.20;;;;;;;-1.75;73.48;101970.61;107836;1244;69326;-68
2022/03/26 05:25:28;;;;;;;44.80;19.60;;;;;;;-1.67;73.23;101977.08;107855;1243;73161;-67
2022/03/26 05:27:58;;;;;;;43.50;20.20;;;;;;;-1.59;73.15;101975.36;107805;1244;59990;-66
2022/03/26 05:30:27;;;;;;;34.50;18.90;;;;;;;-1.48;72.69;101973.64;107793;1244;59560;-67
2022/03/26 05:32:56;;;;;;;37.20;20.70;;;;;;;-1.36;72.48;101978.39;107842;1243;74064;-66
2022/03/26 05:35:25;;;;;;;44.40;19.60;;;;;;;-1.24;72.04;101980.58;107747;1244;70443;-70
2022/03/26 05:37:55;;;;;;;36.40;18.70;;;;;;;-1.10;71.55;101981.88;107869;1244;69001;-65
2022/03/26 05:40:24;;;;;;;37.40;17.20;;;;;;;-0.96;71.48;101981.33;107659;1244;74842;-67
2022/03/26 05:42:53;;;;;;;32.70;17.70;;;;;;;-0.82;71.79;101986.38;107734;1244;60019;-69
2022/03/26 05:45:22;;;;;;;39.30;18.10;;;;;;;-0.71;71.68;101989.41;107788;1244;60639;-67
2022/03/26 05:47:56;;;;;;;38.40;17.60;;;;;;;-0.58;71.14;101989.69;107810;1243;71704;-69
2022/03/26 05:50:26;;;;;;;34.20;16.70;;;;;;;-0.44;70.46;101987.36;107732;1245;70375;-66
2022/03/26 05:52:55;;;;;;;35.90;18.80;;;;;;;-0.28;70.01;101983.83;107693;1244;70542;-69
2022/03/26 05:55:24;;;;;;;27.50;14.70;;;;;;;-0.13;69.86;101989.55;107623;1243;74282;-69
2022/03/26 05:57:53;;;;;;;30.30;17.10;;;;;;;-0.02;69.07;101990.14;107693;1244;59918;-69
2022/03/26 06:00:22;;;;;;;37.00;17.10;;;;;;;0.08;68.83;101986.30;107843;1243;59882;-67
2022/03/26 06:02:51;;;;;;;33.30;18.00;;;;;;;0.22;68.24;101988.05;107359;1247;73625;-68
2022/03/26 06:05:21;;;;;;;31.30;15.90;;;;;;;0.39;68.95;101993.38;107449;1246;72673;-68
2022/03/26 06:07:50;;;;;;;39.70;18.00;;;;;;;0.56;69.36;101996.11;107800;1243;71422;-66
2022/03/26 06:10:20;;;;;;;31.10;18.60;;;;;;;0.72;69.08;101997.48;107780;1243;72386;-70
2022/03/26 07:21:33;;;;;;;29.40;15.30;;;;;;;5.44;53.78;101997.36;108144;1236;73724;31
2022/03/26 07:24:04;;;;;;;34.10;16.20;;;;;;;5.66;53.40;101994.77;107358;1248;60676;-74
2022/03/26 07:26:33;;;;;;;30.50;16.80;;;;;;;5.86;52.74;101994.67;106873;1250;59627;-75
2022/03/26 07:29:02;;;;;;;31.00;19.00;;;;;;;6.07;51.56;101985.88;107347;1247;73124;-74
2022/03/26 07:31:31;;;;;;;30.20;14.80;;;;;;;6.21;51.16;101983.67;107198;1249;72123;-78
2022/03/26 07:34:00;;;;;;;34.40;18.60;;;;;;;6.34;51.48;101975.96;107270;1249;72434;-75
2022/03/26 07:36:35;;;;;;;26.30;13.70;;;;;;;6.45;51.73;101979.75;107179;1249;75624;-75
2022/03/26 07:39:09;;;;;;;27.00;15.10;;;;;;;6.39;50.45;101942.20;107398;1249;59082;-77
2022/03/26 07:41:39;;;;;;;30.90;17.30;;;;;;;6.75;50.02;101972.42;107487;1250;61870;-76
2022/03/26 07:44:09;;;;;;;29.80;18.00;;;;;;;6.86;49.96;101967.17;107496;1249;74848;-75
2022/03/26 07:46:37;;;;;;;34.10;18.90;;;;;;;7.03;50.35;101965.83;107149;1249;74247;-74
2022/03/26 07:49:06;;;;;;;32.40;17.70;;;;;;;7.22;50.52;101960.61;107437;1248;71520;-73
2022/03/26 07:51:35;;;;;;;34.70;18.60;;;;;;;7.41;50.44;101954.86;107411;1247;72029;-75
2022/03/26 07:54:04;;;;;;;31.00;17.70;;;;;;;7.64;50.01;101956.52;107645;1245;60946;-72
2022/03/26 07:56:33;;;;;;;30.90;17.80;;;;;;;7.83;49.38;101952.65;107483;1248;60796;-72
2022/03/26 07:59:02;;;;;;;34.50;18.50;;;;;;;8.01;48.23;101955.90;107400;1247;76138;-73
2022/03/26 08:01:32;;;;;;;30.10;16.70;;;;;;;8.14;48.49;101952.73;107044;1248;72388;-74
2022/03/26 08:04:02;;;;;;;33.50;18.20;;;;;;;8.35;47.06;101948.07;107193;1249;68526;-73
2022/03/26 08:06:31;;;;;;;32.90;18.30;;;;;;;8.48;47.15;101942.96;107582;1248;72022;-76
2022/03/26 08:09:00;;;;;;;29.00;17.20;;;;;;;8.64;45.90;101937.73;107912;1247;59679;-74
2022/03/26 08:11:29;;;;;;;33.70;16.90;;;;;;;8.84;45.23;101932.31;107829;1247;60325;-74
2022/03/26 08:13:58;;;;;;;31.80;17.20;;;;;;;9.02;45.87;101930.98;107562;1248;73366;-76
2022/03/26 08:16:32;;;;;;;26.80;15.60;;;;;;;9.19;45.19;101931.38;107625;1247;72935;-76
2022/03/26 08:19:01;;;;;;;26.70;14.80;;;;;;;9.41;42.98;101927.38;107498;1249;69687;-76
2022/03/26 08:21:32;;;;;;;30.40;18.40;;;;;;;9.47;42.64;101927.80;107818;1247;71225;-75
2022/03/26 08:24:05;;;;;;;34.50;20.70;;;;;;;9.52;42.75;101917.11;107654;1249;59643;-74
2022/03/26 08:26:46;;;;;;;28.30;15.70;;;;;;;9.63;42.96;101916.73;107732;1249;61129;-74
2022/03/26 08:29:15;;;;;;;27.30;14.80;;;;;;;9.82;42.36;101906.92;107627;1248;74840;-73
2022/03/26 08:31:51;;;;;;;27.90;15.40;;;;;;;10.07;41.50;101901.12;107665;1249;71281;-75
2022/03/26 08:34:20;;;;;;;28.10;16.20;;;;;;;10.27;40.60;101898.53;107568;1249;70478;-76
2022/03/26 08:36:49;;;;;;;27.60;16.50;;;;;;;10.40;41.09;101892.35;107483;1249;72664;-73
2022/03/26 08:39:18;;;;;;;28.30;14.30;;;;;;;10.55;40.93;101887.01;107177;1249;59757;-73
2022/03/26 08:41:47;;;;;;;28.00;15.80;;;;;;;10.74;40.33;101885.81;107214;1249;61308;-73
2022/03/26 08:44:16;;;;;;;31.20;16.90;;;;;;;10.85;39.99;101881.34;107421;1249;72452;-74
2022/03/26 08:46:45;;;;;;;28.00;18.30;;;;;;;10.98;40.62;101873.32;107020;1251;71412;-73
2022/03/26 08:49:15;;;;;;;27.50;15.50;;;;;;;11.13;40.39;101866.00;107360;1249;68755;-74
2022/03/26 08:51:44;;;;;;;30.70;14.80;;;;;;;11.30;39.32;101860.33;107313;1249;73940;-73
2022/03/26 08:54:35;;;;;;;28.90;16.50;;;;;;;11.50;38.03;101856.04;107283;1249;60974;-75
2022/03/26 08:57:24;;;;;;;24.10;13.60;;;;;;;11.70;37.69;101854.52;107062;1250;61233;-75
2022/03/26 09:00:36;;;;;;;27.60;15.10;;;;;;;11.87;36.89;101847.05;106805;1248;74851;-75
2022/03/26 09:03:32;;;;;;;24.20;15.60;;;;;;;12.09;37.49;101841.60;107264;1249;71033;-74
2022/03/26 09:06:50;;;;;;;19.50;11.10;;;;;;;12.29;35.89;101836.73;107359;1249;70406;-75
2022/03/26 09:09:56;;;;;;;24.00;13.10;;;;;;;12.43;35.35;101837.90;107196;1249;74440;-74
2022/03/26 09:12:36;;;;;;;24.60;13.90;;;;;;;12.57;35.07;101831.48;107040;1249;62344;-75
2022/03/26 09:15:56;;;;;;;25.10;14.00;;;;;;;12.66;35.45;101817.39;107407;1249;61185;-76
2022/03/26 09:19:09;;;;;;;24.30;12.80;;;;;;;12.71;36.19;101787.04;107321;1249;74964;-73
2022/03/26 09:21:49;;;;;;;16.20;9.40;;;;;;;13.10;36.05;101818.25;107467;1247;72954;-73
2022/03/26 09:24:34;;;;;;;20.30;11.80;;;;;;;13.28;35.73;101819.95;107566;1247;71638;-74
2022/03/26 09:27:04;;;;;;;22.50;11.40;;;;;;;13.33;35.86;101815.05;107440;1247;71618;-73
2022/03/26 09:29:42;;;;;;;20.40;11.90;;;;;;;13.42;35.85;101807.60;107438;1248;60595;-74
2022/03/26 09:32:23;;;;;;;13.30;7.40;;;;;;;13.48;36.00;101803.84;107312;1248;60208;-75
2022/03/26 09:35:05;;;;;;;21.20;11.70;;;;;;;13.56;35.97;101805.77;107062;1247;74847;-77
2022/03/26 09:37:34;;;;;;;18.50;10.00;;;;;;;13.61;36.60;101790.73;107240;1248;71060;-73
2022/03/26 09:40:05;;;;;;;15.20;8.70;;;;;;;13.70;36.72;101788.36;107590;1247;70366;-75
2022/03/26 09:42:36;;;;;;;21.50;11.70;;;;;;;13.88;35.70;101778.23;107712;1248;73981;-73
2022/03/26 09:45:08;;;;;;;20.70;10.70;;;;;;;13.88;35.68;101775.79;107449;1248;60548;-72
2022/03/26 09:47:38;;;;;;;15.70;8.60;;;;;;;13.97;35.49;101765.67;107546;1249;59582;-73
2022/03/26 09:50:10;;;;;;;17.50;8.40;;;;;;;13.98;35.59;101760.16;107127;1248;73700;-74
2022/03/26 09:52:40;;;;;;;19.10;10.10;;;;;;;14.14;35.46;101758.68;107267;1250;70273;-73
2022/03/26 09:55:13;;;;;;;16.10;9.40;;;;;;;14.15;35.87;101753.02;107063;1249;70116;-72
2022/03/26 09:57:41;;;;;;;19.10;9.60;;;;;;;14.32;35.75;101747.59;107101;1251;72509;-73
2022/03/26 10:00:13;;;;;;;16.10;10.20;;;;;;;14.46;35.64;101750.81;107465;1249;62195;-72
2022/03/26 10:02:43;;;;;;;16.30;9.50;;;;;;;14.57;35.04;101734.42;107687;1247;60961;-73
2022/03/26 10:05:19;;;;;;;18.80;9.80;;;;;;;14.59;35.30;101733.23;107620;1249;75300;-74
2022/03/26 10:07:49;;;;;;;22.00;10.50;;;;;;;14.69;35.31;101735.33;107708;1248;72984;-74
2022/03/26 10:10:25;;;;;;;17.80;10.60;;;;;;;14.73;35.42;101726.08;107628;1249;70203;-76
2022/03/26 10:12:54;;;;;;;19.70;9.70;;;;;;;14.91;34.89;101716.26;107658;1249;73587;-75
2022/03/26 10:15:27;;;;;;;15.90;9.40;;;;;;;15.04;34.58;101723.55;108183;1248;61898;-81
2022/03/26 10:18:08;;;;;;;18.50;10.20;;;;;;;15.04;34.51;101707.05;108192;1247;62980;-78
2022/03/26 10:20:37;;;;;;;22.50;11.90;;;;;;;15.14;34.72;101701.09;107902;1249;73654;-74
2022/03/26 10:23:07;;;;;;;16.30;11.00;;;;;;;15.26;34.60;101693.48;107603;1249;70846;-75
2022/03/26 10:25:37;;;;;;;18.40;11.40;;;;;;;15.35;33.66;101688.02;106953;1251;68815;-75
2022/03/26 10:28:06;;;;;;;21.40;9.90;;;;;;;15.38;33.89;101685.52;107521;1250;73323;-75
2022/03/26 10:34:20;;;;;;;20.40;11.40;;;;;;;15.70;33.95;101674.81;107417;1254;61307;-75
2022/03/26 10:37:00;;;;;;;14.70;9.10;;;;;;;15.94;33.63;101667.30;106986;1255;74745;-73
2022/03/26 10:39:31;;;;;;;17.30;10.20;;;;;;;16.36;32.33;101658.44;106986;1254;73029;-74
2022/03/26 10:42:00;;;;;;;15.40;9.40;;;;;;;16.57;32.38;101660.25;106660;1255;69192;-74
2022/03/26 10:44:30;;;;;;;18.00;10.30;;;;;;;16.71;32.04;101648.50;107225;1256;73420;-73
2022/03/26 10:47:04;;;;;;;18.80;11.10;;;;;;;16.90;31.01;101642.78;107046;1253;60660;-76
2022/03/26 10:49:36;;;;;;;16.50;9.40;;;;;;;17.16;30.31;101641.17;107172;1254;60388;-76
2022/03/26 10:52:11;;;;;;;;;;;;;;;17.33;30.34;101631.11;106959;1255;74143;-77
2022/03/26 10:54:41;;;;;;;15.00;9.00;;;;;;;17.30;30.35;101626.63;107304;1254;72098;-74
2022/03/26 10:57:11;;;;;;;15.10;8.70;;;;;;;17.78;29.32;101622.83;107476;1253;69749;-74
2022/03/26 10:59:42;;;;;;;15.80;9.10;;;;;;;18.07;28.77;101615.27;107018;1253;72987;-80
2022/03/26 11:02:19;;;;;;;12.00;7.70;;;;;;;18.38;28.03;101615.84;107484;1253;61143;-74
2022/03/26 11:04:49;;;;;;;14.00;8.00;;;;;;;18.49;27.54;101610.23;107141;1253;61364;-77
2022/03/26 11:07:19;;;;;;;14.60;9.50;;;;;;;18.43;27.70;101604.80;107352;1252;75022;-74
2022/03/26 11:09:53;;;;;;;17.30;9.20;;;;;;;18.39;27.88;101602.52;106711;1255;70816;-73
2022/03/26 11:12:23;;;;;;;19.90;10.10;;;;;;;18.34;28.38;101589.25;106749;1254;71617;-73
2022/03/26 11:14:54;;;;;;;14.80;8.70;;;;;;;18.54;28.28;101589.13;106941;1254;72651;-74
2022/03/26 11:17:44;;;;;;;14.30;6.70;;;;;;;18.69;27.59;101581.59;106972;1254;59652;-74
2022/03/26 11:20:44;;;;;;;13.20;8.40;;;;;;;18.90;27.26;101570.63;107090;1254;59673;-73
2022/03/26 11:23:19;;;;;;;14.70;8.30;;;;;;;19.01;27.48;101563.63;107078;1254;74536;-75
2022/03/26 11:26:12;;;;;;;13.60;8.20;;;;;;;19.15;27.20;101556.09;107007;1254;71887;-75
2022/03/26 11:29:01;;;;;;;13.50;9.10;;;;;;;19.34;27.15;101547.16;106947;1253;69166;-74
2022/03/26 11:31:54;;;;;;;11.40;7.20;;;;;;;19.69;26.57;101539.08;107215;1254;62591;-74
2022/03/26 11:34:23;;;;;;;;;;;;;;;19.98;25.53;101535.33;106998;1254;59649;-76
2022/03/26 11:36:52;;;;;;;15.30;8.50;;;;;;;20.00;25.63;101527.71;107534;1253;57926;-75
2022/03/26 11:39:22;;;;;;;13.00;8.20;;;;;;;19.62;26.27;101515.70;107377;1253;72489;-74
2022/03/26 11:42:06;;;;;;;15.10;7.80;;;;;;;20.06;25.83;101518.38;107294;1253;72269;-74
2022/03/26 11:44:35;;;;;;;13.40;8.50;;;;;;;20.33;25.58;101511.80;107278;1253;60788;-75
2022/03/26 11:53:34;;;;;;;10.40;7.10;;;;;;;21.35;23.15;101493.45;107021;1253;61189;-74
2022/03/26 11:56:04;;;;;;;11.90;6.80;;;;;;;21.32;22.75;101497.84;107205;1253;64022;-77
2022/03/26 11:58:34;;;;;;;12.40;7.00;;;;;;;21.30;22.77;101489.80;107348;1254;61290;-71
2022/03/26 12:01:09;;;;;;;13.70;7.20;;;;;;;21.57;22.03;101483.68;107550;1252;60688;-77
2022/03/26 12:04:27;;;;;;;10.60;7.00;;;;;;;21.40;23.16;101477.60;107345;1252;73990;-76
2022/03/26 12:06:59;;;;;;;11.30;7.00;;;;;;;21.19;23.23;101461.48;107626;1252;62047;-78
2022/03/26 12:09:36;;;;;;;13.70;7.10;;;;;;;21.15;23.89;101458.69;107555;1253;62436;-75
2022/03/26 12:12:05;;;;;;;11.00;6.50;;;;;;;21.73;22.92;101460.24;106747;1253;76684;-74
2022/03/26 12:14:55;;;;;;;9.60;6.00;;;;;;;21.97;22.52;101457.61;106860;1253;71153;-73
2022/03/26 12:17:44;;;;;;;10.20;6.50;;;;;;;22.25;21.71;101447.05;106711;1254;60864;-74
2022/03/26 12:20:34;;;;;;;11.90;7.30;;;;;;;21.88;21.82;101439.95;106879;1253;63317;-75
2022/03/26 12:23:26;;;;;;;12.90;7.00;;;;;;;21.76;22.15;101434.20;106715;1253;61559;-77
2022/03/26 12:26:07;;;;;;;10.90;7.60;;;;;;;22.25;21.99;101435.15;106553;1253;61582;-74
2022/03/26 12:28:43;;;;;;;11.80;6.60;;;;;;;22.95;20.26;101423.05;106668;1252;74728;-73
2022/03/26 12:31:17;;;;;;;11.30;7.20;;;;;;;22.63;20.41;101429.38;106914;1253;62465;-72
2022/03/26 12:33:53;;;;;;;12.80;8.00;;;;;;;22.24;20.67;101427.52;106958;1253;60403;-73
2022/03/26 12:36:22;;;;;;;14.20;7.60;;;;;;;21.92;21.58;101415.03;107019;1253;63502;-73
2022/03/26 12:38:54;;;;;;;14.90;7.90;;;;;;;22.30;21.51;101413.14;107086;1252;61434;-72
2022/03/26 12:41:23;;;;;;;12.30;8.00;;;;;;;22.53;21.50;101406.81;107208;1252;59583;-78
2022/03/26 12:44:01;;;;;;;10.60;7.00;;;;;;;23.07;20.38;101404.36;107581;1253;73619;-75
2022/03/26 12:46:32;;;;;;;10.40;6.20;;;;;;;23.02;20.44;101400.48;107439;1253;61425;-76